This is the latest recevied weather packets stored in our database for station/object K4HOG. If no packets are shown the sender has not sent any weather packets the latest 10 day(s).
| Time | Temp. | Humidity | Pressure | Rain* | Wind** | Luminosity | Snow |
|---|---|---|---|---|---|---|---|
| 1778080567 | 28.89° C | 60% | 1017.2 hPa | 0 mm | - | 578 W/m² | - |
| 1778080263 | 28.33° C | 62% | 1017.2 hPa | 0 mm | - | 272 W/m² | - |
| 1778079960 | 28.33° C | 64% | 1017.3 hPa | 0 mm | - | 232 W/m² | - |
| 1778079657 | 27.78° C | 62% | 1017.3 hPa | 0 mm | - | 264 W/m² | - |
| 1778079354 | 27.78° C | 63% | 1017.2 hPa | 0 mm | - | 215 W/m² | - |
| 1778079051 | 27.78° C | 64% | 1017.2 hPa | 0 mm | - | 258 W/m² | - |
| 1778078748 | 27.78° C | 64% | 1017.1 hPa | 0 mm | - | 377 W/m² | - |
| 1778078445 | 27.22° C | 67% | 1017.3 hPa | 0 mm | - | 237 W/m² | - |
| 1778078143 | 27.22° C | 67% | 1017 hPa | 0 mm | - | 154 W/m² | - |
| 1778077841 | 27.22° C | 68% | 1016.9 hPa | 0 mm | - | 151 W/m² | - |
| 1778077538 | 26.67° C | 69% | 1017 hPa | 0 mm | - | 168 W/m² | - |
| 1778077237 | 26.67° C | 69% | 1016.9 hPa | 0 mm | - | 139 W/m² | - |
| 1778076934 | 26.67° C | 72% | 1017.2 hPa | 0 mm | - | 106 W/m² | - |
| 1778076632 | 26.11° C | 73% | 1017 hPa | 0 mm | - | 123 W/m² | - |
| 1778076329 | 25.56° C | 74% | 1017 hPa | 0 mm | - | 215 W/m² | - |
| 1778076026 | 25.56° C | 74% | 1016.9 hPa | 0 mm | - | 113 W/m² | - |
| 1778075723 | 25.56° C | 77% | 1017 hPa | 0 mm | - | 149 W/m² | - |
| 1778075419 | 25° C | 76% | 1017 hPa | 0 mm | - | 231 W/m² | - |
| 1778075116 | 25° C | 78% | 1017 hPa | 0 mm | - | 303 W/m² | - |
| 1778074812 | 24.44° C | 79% | 1016.9 hPa | 0 mm | - | 138 W/m² | - |
| 1778074509 | 24.44° C | 80% | 1017 hPa | 0 mm | - | 140 W/m² | - |
| 1778074206 | 23.89° C | 80% | 1016.9 hPa | 0 mm | - | 110 W/m² | - |
| 1778073903 | 23.89° C | 80% | 1016.7 hPa | 0 mm | - | 108 W/m² | - |
| 1778073600 | 23.33° C | 81% | 1016.8 hPa | 0 mm | - | 106 W/m² | - |
| 1778073297 | 23.33° C | 82% | 1016.8 hPa | 0 mm | - | 104 W/m² | - |
* Rain latest hour (hover to see other rain measurements)
** Current wind speed in m/s (hover to see current wind gust speed)